sensor_id;sensor_type;location;lat;lon;timestamp;pressure;altitude;pressure_sealevel;temperature;humidity
80424;BME280;69765;47.668;19.326;2023-09-12T00:01:48;98962.06;;;17.17;79.30
80424;BME280;69765;47.668;19.326;2023-09-12T00:04:50;98968.69;;;17.08;80.19
80424;BME280;69765;47.668;19.326;2023-09-12T00:07:53;98961.84;;;17.10;80.25
80424;BME280;69765;47.668;19.326;2023-09-12T00:11:04;98972.66;;;17.23;79.29
80424;BME280;69765;47.668;19.326;2023-09-12T00:14:09;98960.59;;;17.23;79.60
80424;BME280;69765;47.668;19.326;2023-09-12T00:17:11;98964.75;;;17.20;79.83
80424;BME280;69765;47.668;19.326;2023-09-12T00:20:14;98967.69;;;17.29;78.19
80424;BME280;69765;47.668;19.326;2023-09-12T00:23:17;98961.00;;;17.35;78.08
80424;BME280;69765;47.668;19.326;2023-09-12T00:26:19;98963.59;;;17.35;78.00
80424;BME280;69765;47.668;19.326;2023-09-12T00:29:23;98964.25;;;17.30;78.47
80424;BME280;69765;47.668;19.326;2023-09-12T00:32:25;98976.94;;;17.22;79.50
80424;BME280;69765;47.668;19.326;2023-09-12T00:35:29;98974.81;;;17.12;79.91
80424;BME280;69765;47.668;19.326;2023-09-12T00:38:31;98966.16;;;16.88;80.76
80424;BME280;69765;47.668;19.326;2023-09-12T00:41:34;98982.72;;;16.70;81.53
80424;BME280;69765;47.668;19.326;2023-09-12T00:44:36;98967.03;;;16.66;81.65
80424;BME280;69765;47.668;19.326;2023-09-12T00:47:38;98968.66;;;16.64;82.06
80424;BME280;69765;47.668;19.326;2023-09-12T00:50:42;98972.06;;;16.63;82.39
80424;BME280;69765;47.668;19.326;2023-09-12T00:53:45;98969.19;;;16.55;84.10
80424;BME280;69765;47.668;19.326;2023-09-12T00:56:47;98968.53;;;16.60;83.37
80424;BME280;69765;47.668;19.326;2023-09-12T00:59:51;98964.38;;;16.64;82.38
80424;BME280;69765;47.668;19.326;2023-09-12T01:02:54;98964.69;;;16.72;81.97
80424;BME280;69765;47.668;19.326;2023-09-12T01:05:59;98965.72;;;16.75;81.80
80424;BME280;69765;47.668;19.326;2023-09-12T01:09:02;98964.09;;;16.79;81.71
80424;BME280;69765;47.668;19.326;2023-09-12T01:12:05;98963.88;;;16.73;81.99
80424;BME280;69765;47.668;19.326;2023-09-12T01:15:07;98960.53;;;16.75;81.54
80424;BME280;69765;47.668;19.326;2023-09-12T01:18:16;98962.22;;;16.75;81.78
80424;BME280;69765;47.668;19.326;2023-09-12T01:24:52;98968.44;;;16.57;82.48
80424;BME280;69765;47.668;19.326;2023-09-12T01:28:08;98963.44;;;16.62;82.39
80424;BME280;69765;47.668;19.326;2023-09-12T01:31:12;98970.50;;;16.66;81.91
80424;BME280;69765;47.668;19.326;2023-09-12T01:34:15;98965.38;;;16.68;82.35
80424;BME280;69765;47.668;19.326;2023-09-12T01:37:17;98968.88;;;16.70;82.00
80424;BME280;69765;47.668;19.326;2023-09-12T01:40:36;98961.56;;;16.58;82.28
80424;BME280;69765;47.668;19.326;2023-09-12T01:43:42;98967.75;;;16.41;83.46
80424;BME280;69765;47.668;19.326;2023-09-12T01:46:46;98961.16;;;16.26;83.85
80424;BME280;69765;47.668;19.326;2023-09-12T01:49:54;98965.44;;;16.26;84.41
80424;BME280;69765;47.668;19.326;2023-09-12T01:52:58;98972.38;;;16.27;84.28
80424;BME280;69765;47.668;19.326;2023-09-12T01:56:01;98964.06;;;16.34;83.81
80424;BME280;69765;47.668;19.326;2023-09-12T01:59:04;98968.94;;;16.49;83.20
80424;BME280;69765;47.668;19.326;2023-09-12T02:02:06;98970.47;;;16.44;83.53
80424;BME280;69765;47.668;19.326;2023-09-12T02:05:13;98961.56;;;16.37;83.67
80424;BME280;69765;47.668;19.326;2023-09-12T02:08:17;98963.28;;;16.36;83.35
80424;BME280;69765;47.668;19.326;2023-09-12T02:11:20;98958.88;;;16.34;83.74
80424;BME280;69765;47.668;19.326;2023-09-12T02:14:22;98965.81;;;16.35;83.58
80424;BME280;69765;47.668;19.326;2023-09-12T02:17:24;98965.22;;;16.20;84.66
80424;BME280;69765;47.668;19.326;2023-09-12T02:20:27;98969.69;;;16.03;85.74
80424;BME280;69765;47.668;19.326;2023-09-12T02:23:30;98970.06;;;15.91;86.32
80424;BME280;69765;47.668;19.326;2023-09-12T02:26:32;98969.50;;;15.98;85.99
80424;BME280;69765;47.668;19.326;2023-09-12T02:29:39;98967.78;;;15.99;84.81
80424;BME280;69765;47.668;19.326;2023-09-12T02:32:42;98967.22;;;16.06;84.66
80424;BME280;69765;47.668;19.326;2023-09-12T02:35:45;98967.69;;;15.96;85.15
80424;BME280;69765;47.668;19.326;2023-09-12T02:38:47;98965.59;;;15.87;85.67
80424;BME280;69765;47.668;19.326;2023-09-12T02:41:50;98971.94;;;15.74;87.13
80424;BME280;69765;47.668;19.326;2023-09-12T02:44:52;98961.84;;;15.80;86.79
80424;BME280;69765;47.668;19.326;2023-09-12T02:47:54;98971.44;;;15.83;85.23
80424;BME280;69765;47.668;19.326;2023-09-12T02:50:57;98974.31;;;15.70;86.11
80424;BME280;69765;47.668;19.326;2023-09-12T02:53:59;98971.50;;;15.64;86.67
80424;BME280;69765;47.668;19.326;2023-09-12T02:57:02;98971.19;;;15.57;85.91
80424;BME280;69765;47.668;19.326;2023-09-12T03:00:05;98971.19;;;15.38;87.41
80424;BME280;69765;47.668;19.326;2023-09-12T03:03:10;98973.78;;;15.38;86.78
80424;BME280;69765;47.668;19.326;2023-09-12T03:06:13;98977.84;;;15.33;87.54
80424;BME280;69765;47.668;19.326;2023-09-12T03:09:16;98982.34;;;15.37;87.60
80424;BME280;69765;47.668;19.326;2023-09-12T03:12:20;98975.38;;;15.34;88.08
80424;BME280;69765;47.668;19.326;2023-09-12T03:15:23;98978.25;;;15.42;87.85
80424;BME280;69765;47.668;19.326;2023-09-12T03:18:26;98984.50;;;15.47;87.38
80424;BME280;69765;47.668;19.326;2023-09-12T03:21:30;98982.81;;;15.48;86.69
80424;BME280;69765;47.668;19.326;2023-09-12T03:24:32;98977.47;;;15.43;86.87
80424;BME280;69765;47.668;19.326;2023-09-12T03:27:35;98981.06;;;15.27;87.52
80424;BME280;69765;47.668;19.326;2023-09-12T03:30:38;98983.84;;;15.13;87.69
80424;BME280;69765;47.668;19.326;2023-09-12T03:33:43;98983.69;;;15.09;88.42
80424;BME280;69765;47.668;19.326;2023-09-12T03:36:52;98983.63;;;15.27;88.13
80424;BME280;69765;47.668;19.326;2023-09-12T03:39:55;98978.63;;;15.30;87.25
80424;BME280;69765;47.668;19.326;2023-09-12T03:42:57;98978.16;;;15.20;87.17
80424;BME280;69765;47.668;19.326;2023-09-12T03:46:00;98982.75;;;15.07;87.15
80424;BME280;69765;47.668;19.326;2023-09-12T03:49:02;98978.94;;;14.99;88.05
80424;BME280;69765;47.668;19.326;2023-09-12T03:52:05;98983.50;;;15.05;87.69
80424;BME280;69765;47.668;19.326;2023-09-12T03:55:08;98978.41;;;14.87;89.95
80424;BME280;69765;47.668;19.326;2023-09-12T03:58:11;98980.56;;;14.78;90.00
80424;BME280;69765;47.668;19.326;2023-09-12T04:01:13;98986.41;;;14.93;89.23
80424;BME280;69765;47.668;19.326;2023-09-12T04:04:16;98983.03;;;15.14;88.30
80424;BME280;69765;47.668;19.326;2023-09-12T04:07:19;98989.22;;;15.17;87.75
80424;BME280;69765;47.668;19.326;2023-09-12T04:10:21;98984.00;;;15.16;88.26
80424;BME280;69765;47.668;19.326;2023-09-12T04:13:24;98988.13;;;15.12;87.54
80424;BME280;69765;47.668;19.326;2023-09-12T04:16:26;98987.25;;;15.12;87.55
80424;BME280;69765;47.668;19.326;2023-09-12T04:19:30;98994.34;;;14.98;88.65
80424;BME280;69765;47.668;19.326;2023-09-12T04:22:33;98996.31;;;14.84;89.42
80424;BME280;69765;47.668;19.326;2023-09-12T04:25:36;98993.56;;;14.81;90.28
80424;BME280;69765;47.668;19.326;2023-09-12T04:28:38;98990.47;;;14.88;90.45
80424;BME280;69765;47.668;19.326;2023-09-12T04:31:41;98995.44;;;15.03;89.87
80424;BME280;69765;47.668;19.326;2023-09-12T04:34:44;98992.00;;;15.22;88.85
80424;BME280;69765;47.668;19.326;2023-09-12T04:37:47;98993.13;;;15.48;87.71
80424;BME280;69765;47.668;19.326;2023-09-12T04:40:55;99000.41;;;15.56;87.64
80424;BME280;69765;47.668;19.326;2023-09-12T04:43:58;98994.44;;;15.57;87.72
80424;BME280;69765;47.668;19.326;2023-09-12T04:47:01;98995.31;;;15.58;87.39
80424;BME280;69765;47.668;19.326;2023-09-12T04:50:05;99003.66;;;15.52;87.47
80424;BME280;69765;47.668;19.326;2023-09-12T04:53:08;99005.31;;;15.50;88.01
80424;BME280;69765;47.668;19.326;2023-09-12T04:56:10;99009.72;;;15.33;88.89
80424;BME280;69765;47.668;19.326;2023-09-12T04:59:13;99004.84;;;15.40;88.16
80424;BME280;69765;47.668;19.326;2023-09-12T05:02:16;99003.09;;;15.39;87.93
80424;BME280;69765;47.668;19.326;2023-09-12T05:05:18;99012.38;;;15.54;88.33
80424;BME280;69765;47.668;19.326;2023-09-12T05:08:21;99017.34;;;15.69;88.61
80424;BME280;69765;47.668;19.326;2023-09-12T05:11:25;99016.66;;;15.73;88.46
80424;BME280;69765;47.668;19.326;2023-09-12T05:14:27;99021.22;;;15.79;87.78
80424;BME280;69765;47.668;19.326;2023-09-12T05:17:29;99020.34;;;15.99;86.66
80424;BME280;69765;47.668;19.326;2023-09-12T05:20:33;99018.53;;;16.18;85.93
80424;BME280;69765;47.668;19.326;2023-09-12T05:23:35;99025.84;;;16.49;85.90
80424;BME280;69765;47.668;19.326;2023-09-12T05:26:37;99020.22;;;16.80;84.94
80424;BME280;69765;47.668;19.326;2023-09-12T05:29:40;99024.75;;;17.08;83.73
80424;BME280;69765;47.668;19.326;2023-09-12T05:32:42;99022.47;;;17.17;85.38
80424;BME280;69765;47.668;19.326;2023-09-12T05:35:45;99026.13;;;17.22;84.97
80424;BME280;69765;47.668;19.326;2023-09-12T05:38:47;99028.13;;;17.29;83.96
80424;BME280;69765;47.668;19.326;2023-09-12T05:41:50;99023.66;;;17.49;83.43
80424;BME280;69765;47.668;19.326;2023-09-12T05:44:52;99030.53;;;17.73;82.62
80424;BME280;69765;47.668;19.326;2023-09-12T05:47:59;99030.53;;;17.73;82.74
80424;BME280;69765;47.668;19.326;2023-09-12T05:51:02;99035.31;;;17.84;82.81
80424;BME280;69765;47.668;19.326;2023-09-12T05:54:06;99034.44;;;18.35;80.14
80424;BME280;69765;47.668;19.326;2023-09-12T05:57:10;99030.44;;;18.99;78.75
80424;BME280;69765;47.668;19.326;2023-09-12T06:00:14;99031.41;;;19.02;77.73
80424;BME280;69765;47.668;19.326;2023-09-12T06:03:18;99031.81;;;18.87;78.69
80424;BME280;69765;47.668;19.326;2023-09-12T06:06:20;99025.09;;;18.94;78.73
80424;BME280;69765;47.668;19.326;2023-09-12T06:09:23;99037.75;;;19.42;74.26
80424;BME280;69765;47.668;19.326;2023-09-12T06:12:25;99032.00;;;20.15;72.78
80424;BME280;69765;47.668;19.326;2023-09-12T06:15:27;99031.25;;;20.21;71.56
80424;BME280;69765;47.668;19.326;2023-09-12T06:18:30;99028.88;;;20.29;73.38
80424;BME280;69765;47.668;19.326;2023-09-12T06:21:33;99034.22;;;20.35;72.98
80424;BME280;69765;47.668;19.326;2023-09-12T06:24:35;99038.94;;;20.50;72.78
80424;BME280;69765;47.668;19.326;2023-09-12T06:27:38;99026.25;;;20.63;72.38
80424;BME280;69765;47.668;19.326;2023-09-12T06:30:40;99042.44;;;20.88;68.48
80424;BME280;69765;47.668;19.326;2023-09-12T06:33:43;99042.03;;;21.47;68.61
80424;BME280;69765;47.668;19.326;2023-09-12T06:36:45;99044.22;;;22.14;63.45
80424;BME280;69765;47.668;19.326;2023-09-12T06:39:51;99046.03;;;22.70;61.49
80424;BME280;69765;47.668;19.326;2023-09-12T06:42:54;99037.28;;;23.26;61.63
80424;BME280;69765;47.668;19.326;2023-09-12T06:45:56;99040.50;;;23.75;58.61
80424;BME280;69765;47.668;19.326;2023-09-12T06:48:59;99042.84;;;24.35;54.74
80424;BME280;69765;47.668;19.326;2023-09-12T06:52:01;99037.16;;;24.87;53.21
80424;BME280;69765;47.668;19.326;2023-09-12T06:55:05;99042.84;;;25.72;50.23
80424;BME280;69765;47.668;19.326;2023-09-12T06:58:07;99039.50;;;26.15;49.79
80424;BME280;69765;47.668;19.326;2023-09-12T07:01:10;99031.59;;;27.17;45.64
80424;BME280;69765;47.668;19.326;2023-09-12T07:04:12;99033.59;;;28.43;43.18
80424;BME280;69765;47.668;19.326;2023-09-12T07:07:15;99033.72;;;29.23;39.58
80424;BME280;69765;47.668;19.326;2023-09-12T07:10:17;99034.78;;;29.08;40.41
80424;BME280;69765;47.668;19.326;2023-09-12T07:13:26;99037.22;;;29.94;39.25
80424;BME280;69765;47.668;19.326;2023-09-12T07:16:28;99038.25;;;30.95;36.96
80424;BME280;69765;47.668;19.326;2023-09-12T07:19:30;99036.69;;;31.33;35.11
80424;BME280;69765;47.668;19.326;2023-09-12T07:22:33;99038.47;;;30.85;35.35
80424;BME280;69765;47.668;19.326;2023-09-12T07:25:39;99037.00;;;31.15;38.13
80424;BME280;69765;47.668;19.326;2023-09-12T07:28:42;99043.41;;;31.49;35.75
80424;BME280;69765;47.668;19.326;2023-09-12T07:31:45;99043.16;;;31.17;37.14
80424;BME280;69765;47.668;19.326;2023-09-12T07:34:47;99042.84;;;32.54;36.04
80424;BME280;69765;47.668;19.326;2023-09-12T07:37:51;99038.88;;;33.38;32.32
80424;BME280;69765;47.668;19.326;2023-09-12T07:40:53;99040.88;;;32.97;33.90
80424;BME280;69765;47.668;19.326;2023-09-12T07:43:55;99038.38;;;33.54;32.02
80424;BME280;69765;47.668;19.326;2023-09-12T07:46:58;99037.66;;;33.18;31.89
80424;BME280;69765;47.668;19.326;2023-09-12T07:50:00;99038.66;;;33.45;31.78
80424;BME280;69765;47.668;19.326;2023-09-12T07:53:02;99042.50;;;33.66;31.37
80424;BME280;69765;47.668;19.326;2023-09-12T07:56:05;99041.44;;;33.72;33.25
80424;BME280;69765;47.668;19.326;2023-09-12T07:59:07;99028.59;;;33.56;31.85
80424;BME280;69765;47.668;19.326;2023-09-12T08:02:11;99027.63;;;33.89;32.74
80424;BME280;69765;47.668;19.326;2023-09-12T08:05:14;99033.56;;;34.54;31.80
80424;BME280;69765;47.668;19.326;2023-09-12T08:08:17;99028.59;;;34.42;32.76
80424;BME280;69765;47.668;19.326;2023-09-12T08:11:19;99032.59;;;33.71;33.31
80424;BME280;69765;47.668;19.326;2023-09-12T08:14:22;99029.66;;;33.51;33.83
80424;BME280;69765;47.668;19.326;2023-09-12T08:17:24;99021.25;;;33.02;34.88
80424;BME280;69765;47.668;19.326;2023-09-12T08:20:26;99036.81;;;32.82;33.74
80424;BME280;69765;47.668;19.326;2023-09-12T08:23:29;99039.19;;;32.59;35.07
80424;BME280;69765;47.668;19.326;2023-09-12T08:26:31;99036.66;;;32.54;35.77
80424;BME280;69765;47.668;19.326;2023-09-12T08:29:34;99034.09;;;32.85;33.93
80424;BME280;69765;47.668;19.326;2023-09-12T08:32:36;99036.03;;;32.78;35.16
80424;BME280;69765;47.668;19.326;2023-09-12T08:35:41;99035.19;;;33.43;34.25
80424;BME280;69765;47.668;19.326;2023-09-12T13:24:26;98905.09;;;34.23;22.94
80424;BME280;69765;47.668;19.326;2023-09-12T13:27:28;98901.91;;;34.13;23.50
80424;BME280;69765;47.668;19.326;2023-09-12T13:30:31;98907.47;;;33.77;22.75
80424;BME280;69765;47.668;19.326;2023-09-12T13:33:33;98905.19;;;33.37;23.49
80424;BME280;69765;47.668;19.326;2023-09-12T13:36:36;98906.97;;;33.66;22.41
80424;BME280;69765;47.668;19.326;2023-09-12T13:39:38;98900.19;;;33.56;22.02
80424;BME280;69765;47.668;19.326;2023-09-12T13:42:41;98909.63;;;33.37;22.40
80424;BME280;69765;47.668;19.326;2023-09-12T13:45:45;98890.53;;;33.53;23.99
80424;BME280;69765;47.668;19.326;2023-09-12T13:48:48;98899.91;;;33.65;23.61
80424;BME280;69765;47.668;19.326;2023-09-12T13:51:51;98902.16;;;33.20;23.12
80424;BME280;69765;47.668;19.326;2023-09-12T13:54:53;98894.13;;;33.21;24.84
80424;BME280;69765;47.668;19.326;2023-09-12T13:57:57;98894.97;;;33.23;23.83
80424;BME280;69765;47.668;19.326;2023-09-12T14:01:01;98899.25;;;32.98;23.74
80424;BME280;69765;47.668;19.326;2023-09-12T14:04:05;98900.44;;;33.19;23.61
80424;BME280;69765;47.668;19.326;2023-09-12T14:07:08;98903.56;;;33.02;23.99
80424;BME280;69765;47.668;19.326;2023-09-12T14:10:10;98900.69;;;32.12;25.11
80424;BME280;69765;47.668;19.326;2023-09-12T14:13:24;98908.50;;;32.52;23.97
80424;BME280;69765;47.668;19.326;2023-09-12T14:16:27;98897.06;;;32.50;24.27
80424;BME280;69765;47.668;19.326;2023-09-12T14:19:29;98898.13;;;32.75;24.01
80424;BME280;69765;47.668;19.326;2023-09-12T14:22:32;98895.56;;;32.72;24.19
80424;BME280;69765;47.668;19.326;2023-09-12T14:25:36;98886.38;;;32.53;23.88
80424;BME280;69765;47.668;19.326;2023-09-12T14:28:40;98893.47;;;32.52;24.26
80424;BME280;69765;47.668;19.326;2023-09-12T14:31:43;98894.44;;;32.48;24.23
80424;BME280;69765;47.668;19.326;2023-09-12T14:34:53;98886.69;;;32.06;24.40
80424;BME280;69765;47.668;19.326;2023-09-12T14:37:56;98892.03;;;32.05;24.89
80424;BME280;69765;47.668;19.326;2023-09-12T14:40:59;98888.53;;;31.66;26.54
80424;BME280;69765;47.668;19.326;2023-09-12T14:44:01;98892.44;;;31.88;25.67
80424;BME280;69765;47.668;19.326;2023-09-12T14:47:04;98890.97;;;31.75;25.61
80424;BME280;69765;47.668;19.326;2023-09-12T14:50:06;98886.75;;;31.66;26.34
80424;BME280;69765;47.668;19.326;2023-09-12T14:53:12;98888.00;;;31.51;25.94
80424;BME280;69765;47.668;19.326;2023-09-12T14:56:15;98883.16;;;31.32;28.22
80424;BME280;69765;47.668;19.326;2023-09-12T14:59:17;98884.13;;;31.26;28.26
80424;BME280;69765;47.668;19.326;2023-09-12T15:02:20;98889.16;;;31.38;28.64
80424;BME280;69765;47.668;19.326;2023-09-12T15:05:22;98882.78;;;31.48;26.30
80424;BME280;69765;47.668;19.326;2023-09-12T15:08:25;98885.75;;;31.33;26.73
80424;BME280;69765;47.668;19.326;2023-09-12T15:11:27;98889.00;;;31.04;29.62
80424;BME280;69765;47.668;19.326;2023-09-12T15:14:29;98891.47;;;31.13;27.06
80424;BME280;69765;47.668;19.326;2023-09-12T15:17:32;98883.91;;;30.96;28.90
80424;BME280;69765;47.668;19.326;2023-09-12T15:20:35;98888.81;;;30.71;27.96
80424;BME280;69765;47.668;19.326;2023-09-12T15:23:37;98892.50;;;30.61;29.60
80424;BME280;69765;47.668;19.326;2023-09-12T15:26:40;98889.94;;;30.57;28.76
80424;BME280;69765;47.668;19.326;2023-09-12T15:29:42;98886.66;;;30.45;28.57
80424;BME280;69765;47.668;19.326;2023-09-12T15:32:45;98890.63;;;30.21;31.77
80424;BME280;69765;47.668;19.326;2023-09-12T15:35:48;98891.53;;;30.19;31.17
80424;BME280;69765;47.668;19.326;2023-09-12T15:38:51;98893.41;;;30.11;31.56
80424;BME280;69765;47.668;19.326;2023-09-12T15:41:53;98895.25;;;30.05;30.80
80424;BME280;69765;47.668;19.326;2023-09-12T15:44:56;98897.75;;;30.16;29.78
80424;BME280;69765;47.668;19.326;2023-09-12T15:48:04;98895.31;;;30.01;32.11
80424;BME280;69765;47.668;19.326;2023-09-12T15:51:07;98893.88;;;29.83;32.64
80424;BME280;69765;47.668;19.326;2023-09-12T15:54:09;98888.09;;;29.60;34.80
80424;BME280;69765;47.668;19.326;2023-09-12T15:57:12;98891.00;;;29.38;34.68
80424;BME280;69765;47.668;19.326;2023-09-12T16:00:15;98887.50;;;29.38;34.80
80424;BME280;69765;47.668;19.326;2023-09-12T16:03:18;98889.31;;;29.31;35.18
80424;BME280;69765;47.668;19.326;2023-09-12T16:06:21;98891.22;;;29.23;36.14
80424;BME280;69765;47.668;19.326;2023-09-12T16:09:23;98888.97;;;28.91;37.22
80424;BME280;69765;47.668;19.326;2023-09-12T16:12:26;98891.75;;;28.78;37.76
80424;BME280;69765;47.668;19.326;2023-09-12T16:15:29;98883.94;;;28.71;37.72
80424;BME280;69765;47.668;19.326;2023-09-12T16:18:31;98884.00;;;28.65;38.18
80424;BME280;69765;47.668;19.326;2023-09-12T16:21:34;98879.91;;;28.36;38.44
80424;BME280;69765;47.668;19.326;2023-09-12T16:24:36;98884.38;;;28.25;38.27
80424;BME280;69765;47.668;19.326;2023-09-12T16:27:39;98889.84;;;28.05;39.89
80424;BME280;69765;47.668;19.326;2023-09-12T16:30:41;98885.47;;;28.02;39.67
80424;BME280;69765;47.668;19.326;2023-09-12T16:33:46;98885.53;;;27.96;40.09
80424;BME280;69765;47.668;19.326;2023-09-12T16:36:49;98888.38;;;27.66;40.66
80424;BME280;69765;47.668;19.326;2023-09-12T16:39:52;98889.34;;;27.51;42.39
80424;BME280;69765;47.668;19.326;2023-09-12T16:42:54;98880.66;;;27.38;43.20
80424;BME280;69765;47.668;19.326;2023-09-12T16:45:57;98889.59;;;27.07;44.54
80424;BME280;69765;47.668;19.326;2023-09-12T16:48:59;98889.72;;;26.71;44.32
80424;BME280;69765;47.668;19.326;2023-09-12T16:52:02;98890.63;;;26.60;44.30
80424;BME280;69765;47.668;19.326;2023-09-12T16:55:05;98882.78;;;26.47;45.24
80424;BME280;69765;47.668;19.326;2023-09-12T16:58:07;98884.56;;;26.30;45.90
80424;BME280;69765;47.668;19.326;2023-09-12T17:01:10;98882.81;;;26.11;46.58
80424;BME280;69765;47.668;19.326;2023-09-12T17:04:12;98881.06;;;25.94;45.69
80424;BME280;69765;47.668;19.326;2023-09-12T17:07:14;98889.81;;;25.86;46.60
80424;BME280;69765;47.668;19.326;2023-09-12T17:10:17;98887.16;;;25.72;46.73
80424;BME280;69765;47.668;19.326;2023-09-12T17:13:20;98886.25;;;25.64;46.22
80424;BME280;69765;47.668;19.326;2023-09-12T17:16:23;98888.91;;;25.58;46.18
80424;BME280;69765;47.668;19.326;2023-09-12T17:19:25;98899.38;;;25.53;46.25
80424;BME280;69765;47.668;19.326;2023-09-12T17:22:27;98893.25;;;25.43;46.04
80424;BME280;69765;47.668;19.326;2023-09-12T17:25:30;98894.94;;;25.24;47.49
80424;BME280;69765;47.668;19.326;2023-09-12T17:28:32;98903.56;;;24.94;48.94
80424;BME280;69765;47.668;19.326;2023-09-12T17:31:35;98901.75;;;24.81;49.86
80424;BME280;69765;47.668;19.326;2023-09-12T17:34:44;98899.97;;;24.71;50.01
80424;BME280;69765;47.668;19.326;2023-09-12T17:37:49;98905.06;;;24.48;50.45
80424;BME280;69765;47.668;19.326;2023-09-12T17:40:51;98908.34;;;24.19;51.85
80424;BME280;69765;47.668;19.326;2023-09-12T17:43:53;98906.63;;;24.23;51.87
80424;BME280;69765;47.668;19.326;2023-09-12T17:46:56;98907.28;;;23.97;52.97
80424;BME280;69765;47.668;19.326;2023-09-12T17:49:58;98910.63;;;23.80;53.05
80424;BME280;69765;47.668;19.326;2023-09-12T17:53:01;98915.84;;;23.78;52.73
80424;BME280;69765;47.668;19.326;2023-09-12T17:56:03;98907.09;;;23.71;52.13
80424;BME280;69765;47.668;19.326;2023-09-12T17:59:05;98917.50;;;23.68;52.23
80424;BME280;69765;47.668;19.326;2023-09-12T18:02:09;98920.00;;;23.59;52.67
80424;BME280;69765;47.668;19.326;2023-09-12T18:05:12;98917.28;;;23.50;52.98
80424;BME280;69765;47.668;19.326;2023-09-12T18:08:14;98925.03;;;23.41;53.94
80424;BME280;69765;47.668;19.326;2023-09-12T18:11:16;98921.34;;;23.20;54.52
80424;BME280;69765;47.668;19.326;2023-09-12T18:14:19;98926.34;;;23.05;54.77
80424;BME280;69765;47.668;19.326;2023-09-12T18:17:21;98926.16;;;22.90;55.19
80424;BME280;69765;47.668;19.326;2023-09-12T18:20:23;98927.88;;;22.88;55.22
80424;BME280;69765;47.668;19.326;2023-09-12T18:23:27;98931.22;;;22.78;55.23
80424;BME280;69765;47.668;19.326;2023-09-12T18:26:29;98930.22;;;22.68;55.45
80424;BME280;69765;47.668;19.326;2023-09-12T18:29:32;98927.44;;;22.57;55.84
80424;BME280;69765;47.668;19.326;2023-09-12T18:32:34;98928.38;;;22.61;56.12
80424;BME280;69765;47.668;19.326;2023-09-12T18:35:36;98940.22;;;22.39;57.43
80424;BME280;69765;47.668;19.326;2023-09-12T18:38:41;98935.56;;;22.19;57.99
80424;BME280;69765;47.668;19.326;2023-09-12T18:41:44;98933.75;;;22.15;58.08
80424;BME280;69765;47.668;19.326;2023-09-12T18:44:47;98937.97;;;22.07;58.57
80424;BME280;69765;47.668;19.326;2023-09-12T18:47:49;98934.63;;;22.16;58.05
80424;BME280;69765;47.668;19.326;2023-09-12T18:50:52;98932.97;;;22.19;57.89
80424;BME280;69765;47.668;19.326;2023-09-12T18:53:54;98937.91;;;22.04;58.53
80424;BME280;69765;47.668;19.326;2023-09-12T18:56:58;98939.56;;;21.98;58.34
80424;BME280;69765;47.668;19.326;2023-09-12T19:00:02;98946.53;;;22.00;58.75
80424;BME280;69765;47.668;19.326;2023-09-12T19:03:06;98947.13;;;21.84;59.30
80424;BME280;69765;47.668;19.326;2023-09-12T19:06:09;98942.56;;;21.72;60.17
80424;BME280;69765;47.668;19.326;2023-09-12T19:09:11;98950.00;;;21.51;61.91
80424;BME280;69765;47.668;19.326;2023-09-12T19:12:14;98947.16;;;21.37;62.92
80424;BME280;69765;47.668;19.326;2023-09-12T19:15:16;98951.22;;;21.26;63.35
80424;BME280;69765;47.668;19.326;2023-09-12T19:18:20;98950.22;;;21.17;64.57
80424;BME280;69765;47.668;19.326;2023-09-12T19:21:23;98951.81;;;21.12;65.08
80424;BME280;69765;47.668;19.326;2023-09-12T19:24:25;98951.75;;;21.08;65.25
80424;BME280;69765;47.668;19.326;2023-09-12T19:27:27;98938.75;;;21.09;63.99
80424;BME280;69765;47.668;19.326;2023-09-12T19:30:30;98950.66;;;20.98;63.65
80424;BME280;69765;47.668;19.326;2023-09-12T19:33:36;98946.28;;;20.96;63.08
80424;BME280;69765;47.668;19.326;2023-09-12T19:36:38;98948.56;;;20.80;63.48
80424;BME280;69765;47.668;19.326;2023-09-12T19:39:41;98952.16;;;20.87;62.25
80424;BME280;69765;47.668;19.326;2023-09-12T19:42:43;98950.81;;;20.65;63.20
80424;BME280;69765;47.668;19.326;2023-09-12T19:45:45;98950.78;;;20.63;63.24
80424;BME280;69765;47.668;19.326;2023-09-12T19:48:48;98942.50;;;20.43;65.98
80424;BME280;69765;47.668;19.326;2023-09-12T19:51:51;98942.66;;;20.50;65.18
80424;BME280;69765;47.668;19.326;2023-09-12T19:54:53;98947.59;;;20.40;66.31
80424;BME280;69765;47.668;19.326;2023-09-12T19:57:56;98945.72;;;20.33;68.70
80424;BME280;69765;47.668;19.326;2023-09-12T20:00:59;98941.84;;;20.16;68.69
80424;BME280;69765;47.668;19.326;2023-09-12T20:04:03;98943.59;;;20.17;68.62
80424;BME280;69765;47.668;19.326;2023-09-12T20:07:05;98936.63;;;20.16;66.57
80424;BME280;69765;47.668;19.326;2023-09-12T20:10:08;98939.34;;;20.21;66.00
80424;BME280;69765;47.668;19.326;2023-09-12T20:13:10;98941.44;;;20.35;65.99
80424;BME280;69765;47.668;19.326;2023-09-12T20:16:15;98946.38;;;20.25;66.76
80424;BME280;69765;47.668;19.326;2023-09-12T20:19:17;98945.06;;;20.06;69.39
80424;BME280;69765;47.668;19.326;2023-09-12T20:22:20;98951.03;;;20.02;69.25
80424;BME280;69765;47.668;19.326;2023-09-12T20:25:22;98944.59;;;19.87;69.60
80424;BME280;69765;47.668;19.326;2023-09-12T20:28:25;98953.16;;;19.83;69.87
80424;BME280;69765;47.668;19.326;2023-09-12T20:31:28;98953.84;;;19.76;70.36
80424;BME280;69765;47.668;19.326;2023-09-12T20:34:30;98947.88;;;19.80;70.94
80424;BME280;69765;47.668;19.326;2023-09-12T20:37:32;98954.28;;;19.95;70.76
80424;BME280;69765;47.668;19.326;2023-09-12T20:40:35;98952.75;;;20.01;70.74
80424;BME280;69765;47.668;19.326;2023-09-12T20:43:37;98951.16;;;20.08;70.52
80424;BME280;69765;47.668;19.326;2023-09-12T20:46:39;98952.03;;;20.08;70.82